Time;durP1;ratioP1;P1;durP2;ratioP2;P2;SDS_P1;SDS_P2;PMS_P1;PMS_P2;Temp;Humidity;BMP_temperature;BMP_pressure;BME280_temperature;BME280_humidity;BME280_pressure;Samples;Min_cycle;Max_cycle;Signal;HPM_P1;HPM_P2
2022/09/22 00:00:37;;;;;;;10.27;4.88;;;;;;;;;;4940859;28;20098;-71
2022/09/22 00:03:24;;;;;;;10.00;4.40;;;;;;;;;;4938117;28;20055;-71
2022/09/22 00:06:00;;;;;;;8.77;4.13;;;;;;;;;;4940861;28;20051;-72
2022/09/22 00:08:29;;;;;;;8.35;3.88;;;;;;;;;;4940019;28;20047;-72
2022/09/22 00:11:23;;;;;;;7.90;3.72;;;;;;;;;;4941526;28;20552;-72
2022/09/22 00:13:54;;;;;;;7.50;3.80;;;;;;;;;;4935221;28;20300;-70
2022/09/22 00:16:24;;;;;;;8.25;3.63;;;;;;;;;;4942305;28;20505;-72
2022/09/22 00:18:49;;;;;;;13.20;3.70;;;;;;;;;;4938997;28;20063;-72
2022/09/22 00:21:18;;;;;;;9.82;3.78;;;;;;;;;;4937495;28;20058;-70
2022/09/22 00:23:45;;;;;;;9.90;3.40;;;;;;;;;;4938539;28;20130;-71
2022/09/22 00:26:17;;;;;;;7.57;3.22;;;;;;;;;;4943954;28;20062;-70
2022/09/22 00:28:45;;;;;;;5.75;3.00;;;;;;;;;;4942760;28;20039;-70
2022/09/22 00:31:16;;;;;;;11.43;3.20;;;;;;;;;;4939775;28;20098;-72
2022/09/22 00:33:45;;;;;;;7.50;3.22;;;;;;;;;;4955046;28;20043;-72
2022/09/22 00:36:15;;;;;;;7.72;3.08;;;;;;;;;;4941290;28;20039;-70
2022/09/22 00:38:42;;;;;;;7.72;3.20;;;;;;;;;;4941680;28;20058;-72
2022/09/22 00:41:15;;;;;;;6.25;3.13;;;;;;;;;;4941569;28;20039;-70
2022/09/22 00:43:45;;;;;;;7.28;3.00;;;;;;;;;;4953637;28;20050;-72
2022/09/22 00:46:26;;;;;;;7.75;3.00;;;;;;;;;;4943742;28;20515;-70
2022/09/22 00:48:57;;;;;;;6.82;3.05;;;;;;;;;;4941540;28;20070;-71
2022/09/22 00:51:25;;;;;;;9.80;3.10;;;;;;;;;;4937605;28;20043;-69
2022/09/22 00:53:52;;;;;;;5.15;2.50;;;;;;;;;;4939886;28;20047;-72
2022/09/22 00:56:25;;;;;;;5.80;2.67;;;;;;;;;;4942353;28;20137;-70
2022/09/22 00:58:59;;;;;;;9.05;3.13;;;;;;;;;;4939681;28;20302;-71
2022/09/22 01:01:25;;;;;;;6.80;2.70;;;;;;;;;;4938929;28;20497;-72
2022/09/22 01:03:51;;;;;;;7.25;3.00;;;;;;;;;;4940444;28;20051;-72
2022/09/22 01:06:22;;;;;;;7.15;2.80;;;;;;;;;;4940599;28;20115;-72
2022/09/22 01:08:49;;;;;;;7.80;3.20;;;;;;;;;;4940242;28;20039;-75
2022/09/22 01:11:19;;;;;;;14.50;3.25;;;;;;;;;;4942726;28;20039;-70
2022/09/22 01:14:02;;;;;;;6.75;3.03;;;;;;;;;;4939979;28;20043;-68
2022/09/22 01:16:37;;;;;;;6.82;3.22;;;;;;;;;;4943022;28;20597;-71
2022/09/22 01:19:32;;;;;;;8.10;3.30;;;;;;;;;;4945111;28;20615;-70
2022/09/22 01:22:03;;;;;;;7.77;3.33;;;;;;;;;;4940801;28;20157;-71
2022/09/22 01:25:03;;;;;;;7.25;3.00;;;;;;;;;;4941015;28;20415;-71
2022/09/22 01:28:07;;;;;;;7.82;3.40;;;;;;;;;;4942634;28;20110;-71
2022/09/22 01:30:51;;;;;;;7.25;3.20;;;;;;;;;;4939375;28;20097;-71
2022/09/22 01:33:26;;;;;;;10.13;3.60;;;;;;;;;;4940338;28;20166;-70
2022/09/22 01:36:41;;;;;;;11.75;3.60;;;;;;;;;;4940474;28;20051;-71
2022/09/22 01:39:15;;;;;;;5.37;2.80;;;;;;;;;;4938537;28;20726;-72
2022/09/22 01:41:59;;;;;;;5.55;3.20;;;;;;;;;;4944917;28;20039;-71
2022/09/22 01:44:53;;;;;;;6.57;3.00;;;;;;;;;;4939035;28;20059;-69
2022/09/22 01:47:39;;;;;;;8.07;3.28;;;;;;;;;;4939074;28;20055;-68
2022/09/22 01:50:20;;;;;;;7.75;3.30;;;;;;;;;;4939067;28;20066;-70
2022/09/22 01:52:47;;;;;;;6.80;3.65;;;;;;;;;;4940481;28;20251;-72
2022/09/22 01:55:24;;;;;;;8.98;3.60;;;;;;;;;;4940049;28;20081;-71
2022/09/22 01:57:57;;;;;;;10.65;3.50;;;;;;;;;;4937994;28;20614;-71
2022/09/22 02:00:23;;;;;;;9.57;3.53;;;;;;;;;;4934512;28;20453;-71
2022/09/22 02:03:01;;;;;;;7.55;3.40;;;;;;;;;;4938560;28;20153;-72
2022/09/22 02:05:44;;;;;;;10.65;3.63;;;;;;;;;;4940035;28;21198;-71
2022/09/22 02:08:16;;;;;;;6.10;3.38;;;;;;;;;;4940822;28;20094;-71
2022/09/22 02:10:46;;;;;;;7.32;3.50;;;;;;;;;;4940402;28;20051;-71
2022/09/22 02:13:13;;;;;;;7.55;3.50;;;;;;;;;;4943469;28;20454;-71
2022/09/22 02:18:32;;;;;;;6.80;3.38;;;;;;;;;;4939834;28;20047;-73
2022/09/22 02:21:00;;;;;;;5.68;2.92;;;;;;;;;;4947012;28;20051;-72
2022/09/22 02:23:28;;;;;;;7.00;3.35;;;;;;;;;;4940364;28;20430;-71
2022/09/22 02:25:54;;;;;;;7.60;2.92;;;;;;;;;;4943548;28;20524;-74
2022/09/22 02:28:22;;;;;;;4.97;2.88;;;;;;;;;;4942289;28;20047;-75
2022/09/22 02:30:51;;;;;;;7.72;3.13;;;;;;;;;;4954295;28;20521;-71
2022/09/22 02:33:21;;;;;;;10.07;3.00;;;;;;;;;;4939089;28;20122;-72
2022/09/22 02:35:53;;;;;;;5.40;2.70;;;;;;;;;;4937730;28;20054;-72
2022/09/22 02:38:26;;;;;;;6.00;2.90;;;;;;;;;;4942708;28;20106;-73
2022/09/22 02:41:19;;;;;;;5.60;2.80;;;;;;;;;;4938441;28;20082;-70
2022/09/22 02:43:51;;;;;;;6.90;2.90;;;;;;;;;;4943446;28;20500;-72
2022/09/22 02:46:36;;;;;;;4.95;2.80;;;;;;;;;;4943540;28;20047;-70
2022/09/22 02:49:08;;;;;;;8.50;3.40;;;;;;;;;;4957879;28;20066;-69
2022/09/22 02:51:35;;;;;;;5.68;3.00;;;;;;;;;;4942929;28;20067;-70
2022/09/22 02:54:01;;;;;;;7.63;3.03;;;;;;;;;;4944091;28;20148;-70
2022/09/22 02:56:28;;;;;;;6.85;2.92;;;;;;;;;;4943735;28;20055;-71
2022/09/22 02:58:53;;;;;;;9.10;3.20;;;;;;;;;;4945747;28;20047;-72
2022/09/22 03:01:19;;;;;;;7.18;2.70;;;;;;;;;;4943223;28;20464;-70
2022/09/22 03:03:45;;;;;;;7.60;3.20;;;;;;;;;;4944907;28;20135;-72
2022/09/22 03:06:11;;;;;;;7.47;3.20;;;;;;;;;;4947312;28;20052;-71
2022/09/22 03:08:37;;;;;;;7.10;3.10;;;;;;;;;;4941013;28;20055;-70
2022/09/22 03:11:03;;;;;;;5.82;2.72;;;;;;;;;;4944525;28;20587;-70
2022/09/22 03:13:29;;;;;;;6.10;3.30;;;;;;;;;;4941419;28;20573;-70
2022/09/22 03:15:55;;;;;;;7.10;2.70;;;;;;;;;;4942416;28;20055;-70
2022/09/22 03:18:21;;;;;;;6.85;3.22;;;;;;;;;;4946268;28;20047;-71
2022/09/22 03:20:47;;;;;;;7.97;2.88;;;;;;;;;;4941299;28;20074;-73
2022/09/22 03:23:13;;;;;;;7.28;2.90;;;;;;;;;;4943473;28;20454;-72
2022/09/22 03:25:39;;;;;;;4.85;3.10;;;;;;;;;;4944524;28;20512;-71
2022/09/22 03:28:05;;;;;;;8.98;3.20;;;;;;;;;;4942505;28;20306;-69
2022/09/22 03:30:31;;;;;;;6.13;3.22;;;;;;;;;;4939492;28;20265;-70
2022/09/22 03:32:57;;;;;;;6.70;3.00;;;;;;;;;;4944755;28;20410;-71
2022/09/22 03:35:22;;;;;;;6.63;3.25;;;;;;;;;;4941213;28;20497;-71
2022/09/22 03:37:48;;;;;;;5.97;3.33;;;;;;;;;;4943448;28;20054;-70
2022/09/22 03:40:14;;;;;;;6.38;3.08;;;;;;;;;;4941507;28;20177;-71
2022/09/22 03:42:40;;;;;;;5.93;3.13;;;;;;;;;;4943271;28;20039;-72
2022/09/22 03:45:07;;;;;;;8.90;3.42;;;;;;;;;;4943648;28;20109;-71
2022/09/22 03:47:33;;;;;;;6.07;3.35;;;;;;;;;;4944792;28;20059;-71
2022/09/22 03:49:59;;;;;;;7.28;3.20;;;;;;;;;;4940914;28;20075;-68
2022/09/22 03:52:26;;;;;;;7.72;3.10;;;;;;;;;;4945361;28;20047;-72
2022/09/22 03:54:53;;;;;;;9.60;3.50;;;;;;;;;;4944208;28;20051;-70
2022/09/22 03:57:19;;;;;;;6.68;3.10;;;;;;;;;;4955253;28;20082;-72
2022/09/22 03:59:44;;;;;;;10.18;3.65;;;;;;;;;;4939575;28;20122;-70
2022/09/22 04:02:10;;;;;;;6.78;3.20;;;;;;;;;;4939918;28;20058;-71
2022/09/22 04:04:36;;;;;;;8.93;3.22;;;;;;;;;;4940373;28;20082;-71
2022/09/22 04:07:02;;;;;;;6.93;3.00;;;;;;;;;;4935473;28;21075;-70
2022/09/22 04:09:28;;;;;;;8.82;3.58;;;;;;;;;;4939353;28;20162;-71
2022/09/22 04:11:54;;;;;;;9.20;3.35;;;;;;;;;;4939046;28;20043;-74
2022/09/22 04:14:20;;;;;;;13.80;3.60;;;;;;;;;;4943510;28;20078;-70
2022/09/22 04:16:46;;;;;;;6.82;3.22;;;;;;;;;;4941846;28;20616;-71
2022/09/22 04:19:12;;;;;;;7.10;3.50;;;;;;;;;;4938645;28;20138;-69
2022/09/22 04:21:38;;;;;;;9.38;3.20;;;;;;;;;;4941745;28;20083;-70
2022/09/22 04:24:06;;;;;;;7.10;3.03;;;;;;;;;;4940602;28;20059;-72
2022/09/22 04:26:32;;;;;;;6.78;3.45;;;;;;;;;;4941220;28;20059;-70
2022/09/22 04:28:57;;;;;;;7.85;3.10;;;;;;;;;;4940295;28;20060;-70
2022/09/22 04:31:23;;;;;;;7.15;3.30;;;;;;;;;;4941573;28;20063;-69
2022/09/22 04:33:49;;;;;;;10.98;3.95;;;;;;;;;;4941867;28;20063;-70
2022/09/22 04:36:15;;;;;;;6.93;3.13;;;;;;;;;;4943145;28;20518;-70
2022/09/22 04:38:41;;;;;;;8.45;3.22;;;;;;;;;;4941441;28;20114;-68
2022/09/22 04:41:07;;;;;;;7.53;3.33;;;;;;;;;;4954094;28;20055;-70
2022/09/22 04:43:33;;;;;;;9.43;3.30;;;;;;;;;;4939426;28;20855;-72
2022/09/22 04:45:59;;;;;;;6.97;3.10;;;;;;;;;;4954282;28;20070;-71
2022/09/22 04:48:25;;;;;;;11.07;3.63;;;;;;;;;;4939808;28;20429;-70
2022/09/22 04:50:51;;;;;;;8.93;3.10;;;;;;;;;;4936675;28;20047;-71
2022/09/22 04:53:17;;;;;;;6.60;3.30;;;;;;;;;;4945552;28;20077;-71
2022/09/22 04:55:42;;;;;;;9.68;3.80;;;;;;;;;;4942880;28;20043;-70
2022/09/22 04:58:09;;;;;;;8.05;3.28;;;;;;;;;;4946112;28;20091;-72
2022/09/22 05:00:35;;;;;;;7.88;3.50;;;;;;;;;;4939364;28;20101;-71
2022/09/22 05:03:07;;;;;;;7.80;3.88;;;;;;;;;;4939428;28;20059;-72
2022/09/22 05:05:33;;;;;;;9.57;3.53;;;;;;;;;;4937003;28;20051;-71
2022/09/22 05:08:00;;;;;;;7.28;3.47;;;;;;;;;;4941014;28;20063;-73
2022/09/22 05:10:29;;;;;;;7.95;3.33;;;;;;;;;;4943924;28;20197;-70
2022/09/22 05:12:55;;;;;;;13.50;4.60;;;;;;;;;;4945261;28;20576;-72
2022/09/22 05:15:21;;;;;;;10.13;4.13;;;;;;;;;;4944529;28;20102;-73
2022/09/22 05:17:52;;;;;;;8.20;3.80;;;;;;;;;;4947343;28;20055;-71
2022/09/22 05:20:19;;;;;;;9.75;3.70;;;;;;;;;;4937943;28;20050;-71
2022/09/22 05:22:46;;;;;;;9.13;4.35;;;;;;;;;;4941127;28;20047;-73
2022/09/22 05:25:15;;;;;;;9.18;4.20;;;;;;;;;;4939633;28;20082;-75
2022/09/22 05:27:52;;;;;;;12.63;3.70;;;;;;;;;;4946338;28;20039;-75
2022/09/22 05:30:20;;;;;;;7.50;3.35;;;;;;;;;;4940946;28;20035;-71
2022/09/22 05:32:47;;;;;;;9.65;3.70;;;;;;;;;;4944674;28;20065;-71
2022/09/22 05:35:15;;;;;;;9.63;3.95;;;;;;;;;;4941505;28;20513;-73
2022/09/22 05:37:42;;;;;;;9.43;4.30;;;;;;;;;;4939283;28;20051;-71
2022/09/22 05:40:09;;;;;;;11.13;5.13;;;;;;;;;;4938417;28;20102;-72
2022/09/22 05:42:39;;;;;;;9.77;4.32;;;;;;;;;;4942117;28;20086;-74
2022/09/22 05:45:06;;;;;;;10.38;3.92;;;;;;;;;;4945358;28;20553;-71
2022/09/22 05:47:33;;;;;;;7.65;4.10;;;;;;;;;;4945764;28;20051;-71
2022/09/22 05:49:59;;;;;;;8.70;4.10;;;;;;;;;;4943348;28;20051;-71
2022/09/22 05:52:25;;;;;;;7.05;3.80;;;;;;;;;;4944175;28;20072;-69
2022/09/22 05:54:50;;;;;;;11.07;4.20;;;;;;;;;;4938654;28;20397;-71
2022/09/22 05:57:16;;;;;;;9.35;3.58;;;;;;;;;;4941832;28;20047;-71
2022/09/22 05:59:42;;;;;;;10.27;4.03;;;;;;;;;;4935588;28;20096;-71
2022/09/22 06:02:10;;;;;;;11.40;3.70;;;;;;;;;;4940184;28;20741;-73
2022/09/22 06:04:35;;;;;;;17.75;6.65;;;;;;;;;;4936801;28;20091;-70
2022/09/22 06:07:01;;;;;;;12.07;4.40;;;;;;;;;;4942476;28;20055;-73
2022/09/22 06:09:27;;;;;;;13.60;4.80;;;;;;;;;;4936502;28;20051;-71
2022/09/22 06:11:53;;;;;;;9.68;4.40;;;;;;;;;;4938735;28;20458;-68
2022/09/22 06:14:19;;;;;;;11.48;3.95;;;;;;;;;;4939992;28;20039;-69
2022/09/22 06:16:46;;;;;;;9.40;3.92;;;;;;;;;;4941361;28;20055;-69
2022/09/22 06:19:13;;;;;;;13.07;4.18;;;;;;;;;;4938235;28;20058;-69
2022/09/22 06:21:39;;;;;;;13.23;4.07;;;;;;;;;;4938194;28;20055;-72
2022/09/22 06:24:05;;;;;;;11.90;3.97;;;;;;;;;;4940193;28;20054;-70
2022/09/22 06:26:31;;;;;;;12.35;4.38;;;;;;;;;;4945724;29;20055;-70
2022/09/22 06:28:57;;;;;;;12.98;4.22;;;;;;;;;;4936599;28;20059;-69
2022/09/22 06:31:23;;;;;;;13.07;4.07;;;;;;;;;;4939689;28;20043;-70
2022/09/22 06:33:49;;;;;;;13.82;4.00;;;;;;;;;;4946840;28;20043;-73
2022/09/22 06:36:29;;;;;;;17.13;4.13;;;;;;;;;;4945732;28;20126;-72
2022/09/22 06:38:57;;;;;;;15.32;4.05;;;;;;;;;;4945634;28;20046;-69
2022/09/22 06:41:29;;;;;;;12.68;3.78;;;;;;;;;;4944712;28;20163;-70
2022/09/22 06:43:57;;;;;;;20.60;4.38;;;;;;;;;;4951519;28;20127;-72
2022/09/22 06:46:29;;;;;;;21.30;4.30;;;;;;;;;;4958198;28;20047;-71
2022/09/22 06:48:58;;;;;;;15.95;4.38;;;;;;;;;;4941500;28;20047;-70
2022/09/22 06:51:26;;;;;;;21.25;4.45;;;;;;;;;;4944377;28;20043;-72
2022/09/22 06:53:55;;;;;;;20.38;5.13;;;;;;;;;;4948798;28;20055;-70
2022/09/22 06:56:23;;;;;;;16.25;5.22;;;;;;;;;;4940399;28;20362;-70
2022/09/22 06:58:50;;;;;;;30.45;5.60;;;;;;;;;;4949038;28;20047;-71
2022/09/22 07:01:17;;;;;;;13.45;4.57;;;;;;;;;;4947342;28;20047;-71
2022/09/22 07:03:43;;;;;;;18.98;4.70;;;;;;;;;;4950208;28;20485;-70
2022/09/22 07:06:09;;;;;;;14.55;5.18;;;;;;;;;;4942797;28;20043;-69
2022/09/22 07:08:38;;;;;;;18.05;5.30;;;;;;;;;;4948415;28;20580;-73
2022/09/22 07:11:09;;;;;;;9.05;4.72;;;;;;;;;;4948916;28;20051;-71
2022/09/22 07:13:38;;;;;;;9.45;4.28;;;;;;;;;;4947364;28;20535;-71
2022/09/22 07:16:09;;;;;;;14.38;4.93;;;;;;;;;;4948499;28;20380;-70
2022/09/22 07:18:40;;;;;;;11.52;4.47;;;;;;;;;;4951680;28;20055;-70
2022/09/22 07:21:10;;;;;;;16.15;5.10;;;;;;;;;;4949261;28;20503;-70
2022/09/22 07:23:36;;;;;;;10.52;4.75;;;;;;;;;;4952407;28;20481;-69
2022/09/22 07:26:08;;;;;;;13.60;4.85;;;;;;;;;;4955403;28;20047;-70
2022/09/22 07:28:35;;;;;;;15.30;5.15;;;;;;;;;;4948322;28;20047;-69
2022/09/22 07:31:10;;;;;;;22.10;4.88;;;;;;;;;;4947139;28;20077;-70
2022/09/22 07:33:37;;;;;;;17.98;6.00;;;;;;;;;;4948646;28;20698;-70
2022/09/22 07:36:07;;;;;;;16.63;4.45;;;;;;;;;;4946681;28;20047;-71
2022/09/22 07:38:35;;;;;;;13.98;4.90;;;;;;;;;;4947144;28;20129;-69
2022/09/22 07:41:03;;;;;;;17.02;4.72;;;;;;;;;;4941444;28;20408;-71
2022/09/22 07:43:30;;;;;;;16.65;5.00;;;;;;;;;;4944688;28;20138;-70
2022/09/22 07:45:58;;;;;;;16.42;5.18;;;;;;;;;;4948969;28;20057;-70
2022/09/22 07:48:35;;;;;;;10.93;4.35;;;;;;;;;;4947277;28;20043;-72
2022/09/22 07:51:07;;;;;;;17.10;4.90;;;;;;;;;;4943936;28;20119;-70
2022/09/22 07:53:35;;;;;;;12.88;4.03;;;;;;;;;;4946870;28;20058;-69
2022/09/22 07:56:06;;;;;;;14.35;4.53;;;;;;;;;;4948470;28;20571;-70
2022/09/22 07:58:32;;;;;;;22.85;5.13;;;;;;;;;;4963926;28;20134;-71
2022/09/22 08:01:05;;;;;;;14.90;4.53;;;;;;;;;;4950403;28;20043;-73
2022/09/22 08:03:31;;;;;;;9.98;4.00;;;;;;;;;;4952539;28;20110;-70
2022/09/22 08:06:09;;;;;;;15.02;4.88;;;;;;;;;;4946729;29;20063;-69
2022/09/22 08:08:43;;;;;;;14.60;4.20;;;;;;;;;;4945600;28;20047;-74
2022/09/22 08:11:14;;;;;;;13.80;4.32;;;;;;;;;;4946766;28;20094;-69
2022/09/22 08:13:43;;;;;;;11.82;3.95;;;;;;;;;;4948060;28;20509;-70
2022/09/22 08:16:10;;;;;;;13.27;3.92;;;;;;;;;;4946640;28;20073;-70
2022/09/22 08:18:38;;;;;;;11.02;4.07;;;;;;;;;;4947663;28;20051;-67
2022/09/22 08:21:08;;;;;;;15.98;4.30;;;;;;;;;;4944030;28;20065;-68
2022/09/22 08:23:34;;;;;;;12.80;3.80;;;;;;;;;;4941524;28;20489;-68
2022/09/22 08:26:05;;;;;;;11.88;4.22;;;;;;;;;;4946830;28;20820;-68
2022/09/22 08:28:32;;;;;;;24.38;4.50;;;;;;;;;;4946490;28;20073;-72
2022/09/22 08:30:58;;;;;;;12.85;5.05;;;;;;;;;;4946846;28;20150;-66
2022/09/22 08:33:25;;;;;;;10.80;4.90;;;;;;;;;;4946547;28;20126;-70
2022/09/22 08:36:02;;;;;;;22.55;5.95;;;;;;;;;;4947000;28;20047;-71
2022/09/22 08:38:29;;;;;;;12.98;5.43;;;;;;;;;;4941665;28;20348;-69
2022/09/22 08:41:12;;;;;;;15.57;5.43;;;;;;;;;;4945859;28;20501;-67
2022/09/22 08:43:54;;;;;;;16.02;5.38;;;;;;;;;;4946068;28;20138;-69
2022/09/22 08:46:27;;;;;;;18.27;5.65;;;;;;;;;;4945937;28;20058;-68
2022/09/22 08:51:55;;;;;;;13.70;4.70;;;;;;;;;;4947243;28;20276;-70
2022/09/22 08:54:28;;;;;;;11.43;3.70;;;;;;;;;;4963193;28;20125;-69
2022/09/22 08:57:26;;;;;;;9.90;4.00;;;;;;;;;;4949807;28;21541;-69
2022/09/22 09:00:01;;;;;;;8.10;3.28;;;;;;;;;;4946260;28;20309;-68
2022/09/22 09:02:55;;;;;;;8.23;3.30;;;;;;;;;;4947791;28;20051;-68
2022/09/22 09:05:46;;;;;;;10.00;3.45;;;;;;;;;;4948034;28;20468;-66
2022/09/22 09:08:21;;;;;;;8.95;3.90;;;;;;;;;;4943459;28;20169;-66
2022/09/22 09:10:55;;;;;;;7.05;3.50;;;;;;;;;;4948245;28;20050;-70
2022/09/22 09:13:58;;;;;;;9.77;4.20;;;;;;;;;;4945145;28;20046;-68
2022/09/22 09:16:58;;;;;;;10.25;3.42;;;;;;;;;;4949460;28;20040;-66
2022/09/22 09:19:33;;;;;;;6.78;2.70;;;;;;;;;;4948442;28;20051;-69
2022/09/22 09:22:04;;;;;;;6.85;3.13;;;;;;;;;;4949859;28;20067;-71
2022/09/22 09:24:36;;;;;;;11.40;3.88;;;;;;;;;;4950542;28;20055;-67
2022/09/22 09:27:08;;;;;;;5.25;2.90;;;;;;;;;;4949075;28;20413;-66
2022/09/22 09:29:43;;;;;;;6.07;3.00;;;;;;;;;;4951604;28;20058;-67
2022/09/22 09:32:23;;;;;;;6.10;3.22;;;;;;;;;;4949713;28;20560;-66
2022/09/22 09:34:49;;;;;;;10.48;3.80;;;;;;;;;;4950473;28;20049;-70
2022/09/22 09:37:16;;;;;;;7.53;3.38;;;;;;;;;;4947875;28;20130;-67
2022/09/22 09:39:44;;;;;;;10.73;3.33;;;;;;;;;;4951185;28;20043;-70
2022/09/22 09:42:33;;;;;;;8.15;2.90;;;;;;;;;;4945447;28;20074;-66
2022/09/22 09:45:01;;;;;;;9.50;3.47;;;;;;;;;;4947866;28;20086;-68
2022/09/22 09:48:06;;;;;;;12.93;3.10;;;;;;;;;;4947403;28;20412;-71
2022/09/22 09:50:34;;;;;;;9.30;2.97;;;;;;;;;;4947748;28;20048;-68
2022/09/22 09:53:00;;;;;;;8.38;3.25;;;;;;;;;;4947790;28;20070;-67
2022/09/22 09:55:26;;;;;;;9.55;3.40;;;;;;;;;;4949479;28;20039;-70
2022/09/22 09:58:05;;;;;;;11.23;4.22;;;;;;;;;;4949924;28;20134;-68
2022/09/22 10:00:33;;;;;;;10.27;3.63;;;;;;;;;;4965248;28;20375;-70
2022/09/22 10:03:10;;;;;;;9.63;4.30;;;;;;;;;;4949159;28;20505;-70
2022/09/22 10:05:36;;;;;;;10.93;4.07;;;;;;;;;;4948651;28;20059;-73
2022/09/22 10:08:14;;;;;;;12.40;4.13;;;;;;;;;;4948939;28;20456;-71
2022/09/22 10:10:40;;;;;;;8.40;3.70;;;;;;;;;;4945022;28;20543;-70
2022/09/22 10:13:06;;;;;;;8.27;3.90;;;;;;;;;;4948975;28;20055;-70
2022/09/22 10:15:34;;;;;;;13.90;4.20;;;;;;;;;;4950084;28;20055;-68
2022/09/22 10:18:01;;;;;;;9.63;3.20;;;;;;;;;;4949808;28;20380;-69
2022/09/22 10:20:30;;;;;;;8.93;3.75;;;;;;;;;;4944282;28;20047;-68
2022/09/22 10:23:20;;;;;;;5.60;3.42;;;;;;;;;;4949100;28;20079;-72
2022/09/22 10:25:48;;;;;;;9.25;3.28;;;;;;;;;;4946763;28;20071;-67
2022/09/22 10:28:17;;;;;;;9.27;3.50;;;;;;;;;;4945493;28;20082;-67
2022/09/22 10:30:56;;;;;;;10.30;3.50;;;;;;;;;;4947067;28;20094;-71
2022/09/22 10:33:22;;;;;;;6.85;3.60;;;;;;;;;;4946516;28;20051;-67
2022/09/22 10:36:09;;;;;;;7.18;2.85;;;;;;;;;;4946867;28;20265;-71
2022/09/22 10:38:41;;;;;;;12.45;2.80;;;;;;;;;;4947792;28;20312;-70
2022/09/22 10:41:16;;;;;;;7.97;2.38;;;;;;;;;;4943267;28;20059;-67
2022/09/22 10:43:53;;;;;;;12.63;3.05;;;;;;;;;;4948384;28;20497;-70
2022/09/22 10:46:54;;;;;;;7.13;2.30;;;;;;;;;;4944126;28;20351;-68
2022/09/22 10:49:41;;;;;;;16.17;2.17;;;;;;;;;;4948176;28;20126;-69
2022/09/22 10:52:13;;;;;;;15.10;3.08;;;;;;;;;;4946206;28;20102;-66
2022/09/22 10:55:00;;;;;;;18.77;3.05;;;;;;;;;;4946959;28;20044;-68
2022/09/22 10:57:42;;;;;;;12.95;3.10;;;;;;;;;;4946128;28;20055;-66
2022/09/22 11:00:18;;;;;;;5.93;2.67;;;;;;;;;;4946972;28;20054;-66
2022/09/22 11:03:19;;;;;;;12.35;3.10;;;;;;;;;;4946332;28;20047;-71
2022/09/22 11:12:18;;;;;;;11.45;3.80;;;;;;;;;;4951630;28;20059;-69
2022/09/22 11:14:59;;;;;;;9.63;2.88;;;;;;;;;;4951320;28;20050;-69
2022/09/22 11:17:59;;;;;;;7.50;2.38;;;;;;;;;;4964134;28;20058;-67
2022/09/22 11:20:57;;;;;;;16.58;3.00;;;;;;;;;;4950927;28;20448;-71
2022/09/22 11:23:42;;;;;;;9.88;2.50;;;;;;;;;;4948641;28;20047;-67
2022/09/22 11:26:45;;;;;;;7.88;3.60;;;;;;;;;;4953581;28;20142;-67
2022/09/22 11:29:25;;;;;;;6.68;2.88;;;;;;;;;;4950590;28;20075;-69
2022/09/22 11:32:21;;;;;;;10.90;2.88;;;;;;;;;;4950042;28;20456;-69
2022/09/22 11:34:52;;;;;;;12.10;2.90;;;;;;;;;;4949508;28;20070;-70
2022/09/22 11:37:29;;;;;;;11.52;3.28;;;;;;;;;;4950067;28;20051;-69
2022/09/22 11:40:20;;;;;;;10.25;2.80;;;;;;;;;;4949862;28;20057;-71
2022/09/22 11:43:16;;;;;;;10.77;2.60;;;;;;;;;;4948030;28;20047;-67
2022/09/22 11:45:53;;;;;;;7.53;2.65;;;;;;;;;;4948187;28;20110;-68
2022/09/22 11:48:25;;;;;;;8.25;1.90;;;;;;;;;;4952224;28;20485;-68
2022/09/22 11:51:24;;;;;;;7.18;2.20;;;;;;;;;;4948872;28;20046;-70
2022/09/22 11:53:59;;;;;;;5.28;2.20;;;;;;;;;;4947471;28;20055;-70
2022/09/22 11:56:43;;;;;;;6.22;1.95;;;;;;;;;;4950172;28;20465;-68
2022/09/22 11:59:15;;;;;;;6.18;2.03;;;;;;;;;;4949417;28;20098;-71
2022/09/22 12:01:51;;;;;;;4.57;2.00;;;;;;;;;;4948961;28;20049;-74
2022/09/22 12:04:33;;;;;;;6.63;2.10;;;;;;;;;;4943739;28;20058;-70
2022/09/22 12:07:02;;;;;;;12.77;2.35;;;;;;;;;;4949703;28;20070;-67
2022/09/22 12:09:46;;;;;;;4.68;1.90;;;;;;;;;;4950362;28;20043;-68
2022/09/22 12:12:17;;;;;;;9.60;2.53;;;;;;;;;;4949799;28;20405;-68
2022/09/22 12:14:46;;;;;;;8.68;2.60;;;;;;;;;;4949700;28;20047;-67
2022/09/22 12:17:35;;;;;;;5.80;2.20;;;;;;;;;;4949085;28;20055;-67
2022/09/22 12:20:32;;;;;;;4.32;2.03;;;;;;;;;;4977991;28;20055;-71
2022/09/22 12:23:24;;;;;;;5.50;2.22;;;;;;;;;;4965195;28;20100;-68
2022/09/22 12:25:53;;;;;;;10.02;2.40;;;;;;;;;;4984166;28;20129;-71
2022/09/22 12:28:26;;;;;;;9.70;2.88;;;;;;;;;;4987319;28;20101;-69
2022/09/22 12:31:04;;;;;;;9.63;2.40;;;;;;;;;;4983048;28;20050;-69
2022/09/22 12:33:36;;;;;;;6.15;2.75;;;;;;;;;;4986109;28;20054;-71
2022/09/22 12:36:04;;;;;;;8.15;2.97;;;;;;;;;;4982328;28;20500;-70
2022/09/22 12:38:31;;;;;;;8.05;2.53;;;;;;;;;;4984587;28;20050;-69
2022/09/22 12:41:01;;;;;;;7.38;3.00;;;;;;;;;;4985996;28;20130;-68
2022/09/22 12:43:28;;;;;;;6.65;2.67;;;;;;;;;;4968990;28;20074;-67
2022/09/22 12:45:56;;;;;;;10.70;2.75;;;;;;;;;;4986941;28;20061;-68
2022/09/22 12:48:26;;;;;;;5.68;2.80;;;;;;;;;;4987817;28;20260;-68
2022/09/22 12:51:24;;;;;;;5.57;2.60;;;;;;;;;;4984379;28;20058;-69
2022/09/22 12:54:11;;;;;;;9.63;2.53;;;;;;;;;;4984663;28;20137;-70
2022/09/22 12:57:19;;;;;;;7.82;2.20;;;;;;;;;;4972336;28;20055;-69
2022/09/22 12:59:54;;;;;;;9.20;2.47;;;;;;;;;;4949563;28;20046;-67
2022/09/22 13:02:28;;;;;;;6.45;2.45;;;;;;;;;;4951461;28;20466;-67
2022/09/22 13:04:54;;;;;;;8.25;2.22;;;;;;;;;;4950419;28;20047;-69
2022/09/22 13:07:39;;;;;;;5.85;2.63;;;;;;;;;;4947384;28;20051;-71
2022/09/22 13:10:31;;;;;;;7.65;2.38;;;;;;;;;;4949111;28;20089;-66
2022/09/22 13:13:00;;;;;;;7.18;2.25;;;;;;;;;;4949208;28;20110;-69
2022/09/22 13:15:27;;;;;;;8.05;2.88;;;;;;;;;;4953540;28;20043;-69
2022/09/22 13:17:53;;;;;;;12.13;2.80;;;;;;;;;;4953088;28;20105;-67
2022/09/22 13:20:33;;;;;;;4.53;1.98;;;;;;;;;;4953942;28;20489;-67
2022/09/22 13:23:10;;;;;;;6.30;1.80;;;;;;;;;;4952465;28;20061;-68
2022/09/22 13:25:38;;;;;;;4.82;1.70;;;;;;;;;;4953164;28;20058;-73
2022/09/22 13:28:06;;;;;;;3.22;1.77;;;;;;;;;;4952851;28;20050;-67
2022/09/22 13:30:33;;;;;;;5.05;1.80;;;;;;;;;;4950392;28;20043;-67
2022/09/22 13:32:59;;;;;;;4.88;1.88;;;;;;;;;;4947214;28;20082;-70
2022/09/22 13:35:37;;;;;;;7.57;1.67;;;;;;;;;;4948192;28;20409;-69
2022/09/22 13:38:03;;;;;;;8.00;2.08;;;;;;;;;;4947895;28;20048;-71
2022/09/22 13:40:33;;;;;;;6.22;1.98;;;;;;;;;;4943243;28;20040;-71
2022/09/22 13:43:07;;;;;;;3.88;1.67;;;;;;;;;;4948454;28;20061;-68
2022/09/22 13:45:36;;;;;;;6.03;1.58;;;;;;;;;;4948205;28;20336;-69
2022/09/22 13:48:13;;;;;;;5.45;1.83;;;;;;;;;;4963141;28;20075;-73
2022/09/22 13:50:48;;;;;;;7.00;2.38;;;;;;;;;;4947628;28;20574;-67
2022/09/22 13:53:17;;;;;;;8.25;1.95;;;;;;;;;;4947712;28;20043;-68
2022/09/22 13:55:48;;;;;;;8.63;2.40;;;;;;;;;;4947013;28;20221;-66
2022/09/22 13:58:15;;;;;;;5.90;1.88;;;;;;;;;;4947710;28;20516;-66
2022/09/22 14:00:47;;;;;;;7.63;1.98;;;;;;;;;;4947538;28;20039;-66
2022/09/22 14:03:19;;;;;;;5.35;2.00;;;;;;;;;;4947553;28;20047;-69
2022/09/22 14:05:46;;;;;;;8.60;1.95;;;;;;;;;;4946762;28;20051;-68
2022/09/22 14:08:19;;;;;;;7.63;1.92;;;;;;;;;;4947370;28;20067;-71
2022/09/22 14:10:46;;;;;;;6.38;2.45;;;;;;;;;;4947636;28;20058;-68
2022/09/22 14:13:41;;;;;;;5.28;2.17;;;;;;;;;;4941734;28;20039;-71
2022/09/22 14:16:22;;;;;;;7.32;2.03;;;;;;;;;;4946175;28;20061;-67
2022/09/22 14:19:19;;;;;;;7.97;1.63;;;;;;;;;;4946107;28;20043;-71
2022/09/22 14:21:56;;;;;;;7.13;1.85;;;;;;;;;;4943452;28;20058;-70
2022/09/22 14:24:22;;;;;;;8.55;1.70;;;;;;;;;;4947225;28;20059;-69
2022/09/22 14:26:52;;;;;;;5.53;1.98;;;;;;;;;;4950373;28;20090;-67
2022/09/22 14:29:32;;;;;;;4.93;1.80;;;;;;;;;;4948301;28;20249;-68
2022/09/22 14:32:10;;;;;;;4.13;1.70;;;;;;;;;;4945401;28;20051;-69
2022/09/22 14:34:37;;;;;;;6.00;1.80;;;;;;;;;;4944607;28;20070;-68
2022/09/22 14:37:38;;;;;;;6.55;2.05;;;;;;;;;;4946955;28;20212;-68
2022/09/22 14:40:14;;;;;;;5.70;2.50;;;;;;;;;;4943518;28;20051;-68
2022/09/22 14:42:40;;;;;;;8.23;2.60;;;;;;;;;;4946166;28;20047;-66
2022/09/22 14:45:09;;;;;;;5.53;2.10;;;;;;;;;;4949637;28;20515;-68
2022/09/22 14:47:39;;;;;;;5.10;1.90;;;;;;;;;;4952966;28;20035;-68
2022/09/22 14:50:19;;;;;;;8.65;2.05;;;;;;;;;;4946130;28;20059;-67
2022/09/22 14:53:03;;;;;;;5.40;2.10;;;;;;;;;;4945187;28;20066;-69
2022/09/22 14:55:40;;;;;;;4.82;2.00;;;;;;;;;;4947451;28;20047;-69
2022/09/22 14:58:13;;;;;;;6.68;3.13;;;;;;;;;;4946387;28;20043;-69
2022/09/22 15:03:37;;;;;;;10.73;2.30;;;;;;;;;;4947785;28;20126;-70
2022/09/22 15:06:21;;;;;;;6.72;2.15;;;;;;;;;;4944666;28;20062;-70
2022/09/22 15:08:51;;;;;;;7.25;2.20;;;;;;;;;;4944755;28;20049;-73
2022/09/22 15:11:20;;;;;;;9.70;2.40;;;;;;;;;;4966488;28;20200;-72
2022/09/22 15:13:50;;;;;;;7.28;2.60;;;;;;;;;;4997483;28;20122;-71
2022/09/22 15:16:37;;;;;;;6.00;2.13;;;;;;;;;;4947010;28;20048;-72
2022/09/22 15:19:05;;;;;;;8.05;2.45;;;;;;;;;;4948821;28;20052;-70
2022/09/22 15:21:36;;;;;;;5.30;1.92;;;;;;;;;;4963991;28;20043;-72
2022/09/22 15:24:04;;;;;;;6.18;2.10;;;;;;;;;;4949364;28;20055;-71
2022/09/22 15:26:31;;;;;;;9.32;2.72;;;;;;;;;;4953238;28;20137;-70